Time;durP1;ratioP1;P1;durP2;ratioP2;P2;SDS_P1;SDS_P2;PMS_P1;PMS_P2;Temp;Humidity;BMP_temperature;BMP_pressure;BME280_temperature;BME280_humidity;BME280_pressure;Samples;Min_cycle;Max_cycle;Signal;HPM_P1;HPM_P2
2022/12/04 00:00:15;;;;;;;72.50;31.97;;;2.50;90.90;;;;;;5092837;28;20035;-77
2022/12/04 00:02:41;;;;;;;74.53;33.33;;;2.50;90.90;;;;;;5057884;28;20058;-78
2022/12/04 00:05:08;;;;;;;77.23;34.47;;;2.50;90.90;;;;;;5092928;28;20070;-89
2022/12/04 00:07:34;;;;;;;73.93;33.80;;;2.50;90.90;;;;;;5097620;28;20020;-88
2022/12/04 00:10:00;;;;;;;75.00;34.93;;;2.50;90.90;;;;;;5080090;28;20024;-89
2022/12/04 00:12:25;;;;;;;77.43;34.07;;;2.50;90.80;;;;;;5096331;28;20050;-89
2022/12/04 00:14:51;;;;;;;72.20;32.30;;;2.50;90.80;;;;;;5097509;28;20020;-89
2022/12/04 00:17:17;;;;;;;80.07;36.47;;;2.50;90.80;;;;;;5097527;28;20031;-89
2022/12/04 00:19:42;;;;;;;76.50;35.03;;;2.60;90.80;;;;;;5096227;28;20082;-88
2022/12/04 00:22:08;;;;;;;75.60;35.60;;;2.50;90.80;;;;;;5079491;28;20043;-87
2022/12/04 00:24:34;;;;;;;73.37;32.67;;;2.60;90.80;;;;;;5097675;28;20372;-87
2022/12/04 00:27:00;;;;;;;71.47;34.23;;;2.50;90.80;;;;;;5096298;28;20039;-88
2022/12/04 00:29:25;;;;;;;75.20;33.30;;;2.50;90.80;;;;;;5080025;28;20475;-89
2022/12/04 00:31:51;;;;;;;75.57;33.33;;;2.50;91.00;;;;;;5079509;28;20097;-88
2022/12/04 00:34:17;;;;;;;77.10;34.90;;;2.50;90.80;;;;;;5079075;28;20134;-89
2022/12/04 00:36:42;;;;;;;74.70;33.93;;;2.50;90.80;;;;;;5095968;28;20032;-89
2022/12/04 00:39:08;;;;;;;80.43;35.33;;;2.50;90.80;;;;;;5095953;28;20534;-89
2022/12/04 00:41:34;;;;;;;80.93;36.57;;;2.50;90.80;;;;;;5095835;28;20028;-88
2022/12/04 00:44:00;;;;;;;79.03;35.03;;;2.50;90.80;;;;;;5078956;28;20028;-89
2022/12/04 00:46:26;;;;;;;76.50;33.70;;;2.50;90.80;;;;;;5095574;28;20536;-88
2022/12/04 00:48:52;;;;;;;73.83;33.40;;;2.50;90.80;;;;;;5095498;28;20115;-88
2022/12/04 00:51:21;;;;;;;81.83;36.13;;;2.50;91.10;;;;;;5078716;28;20039;-88
2022/12/04 00:53:46;;;;;;;71.77;34.77;;;2.50;90.90;;;;;;5095398;28;20024;-88
2022/12/04 00:56:16;;;;;;;76.90;34.53;;;2.50;90.90;;;;;;5078272;28;20051;-89
2022/12/04 00:58:41;;;;;;;73.27;34.10;;;2.50;90.90;;;;;;5095307;28;20062;-89
2022/12/04 01:01:13;;;;;;;81.63;34.53;;;2.50;90.80;;;;;;5095175;28;20028;-89
2022/12/04 01:03:39;;;;;;;78.03;36.13;;;2.50;90.80;;;;;;5095387;28;20020;-88
2022/12/04 01:06:06;;;;;;;76.00;34.47;;;2.50;90.80;;;;;;5095163;28;20024;-89
2022/12/04 01:08:32;;;;;;;74.30;34.27;;;2.50;90.80;;;;;;5096115;28;20103;-90
2022/12/04 01:10:58;;;;;;;77.10;34.73;;;2.50;90.80;;;;;;5078209;28;20031;-89
2022/12/04 01:13:25;;;;;;;74.23;33.80;;;2.50;90.80;;;;;;5094934;28;20438;-87
2022/12/04 01:15:50;;;;;;;77.30;34.27;;;2.50;90.90;;;;;;5094575;28;20093;-87
2022/12/04 01:18:17;;;;;;;70.87;33.40;;;2.40;90.90;;;;;;5094357;28;20036;-87
2022/12/04 01:20:48;;;;;;;75.13;34.67;;;2.50;91.00;;;;;;5096194;28;20016;-87
2022/12/04 01:23:14;;;;;;;76.47;35.67;;;2.50;91.00;;;;;;5095013;28;20491;-86
2022/12/04 01:25:48;;;;;;;79.67;37.27;;;2.50;91.00;;;;;;5095466;28;20032;-88
2022/12/04 01:28:13;;;;;;;70.97;32.95;;;2.40;91.00;;;;;;5079894;28;20035;-86
2022/12/04 01:30:39;;;;;;;73.40;33.97;;;2.50;91.00;;;;;;5099045;28;20028;-88
2022/12/04 01:33:04;;;;;;;81.43;36.03;;;2.50;90.90;;;;;;5083575;28;20423;-88
2022/12/04 01:35:30;;;;;;;76.80;35.87;;;2.50;90.90;;;;;;5083177;28;20044;-87
2022/12/04 01:37:56;;;;;;;77.67;35.37;;;2.50;90.90;;;;;;5096919;28;20093;-89
2022/12/04 01:40:21;;;;;;;80.63;36.67;;;2.50;90.90;;;;;;5094512;28;20077;-86
2022/12/04 01:42:47;;;;;;;81.90;38.07;;;2.60;90.90;;;;;;5061086;28;20123;-88
2022/12/04 01:45:38;;;;;;;77.30;35.67;;;2.50;90.90;;;;;;5061052;28;20380;-87
2022/12/04 01:48:30;;;;;;;78.40;36.10;;;2.50;90.90;;;;;;5099954;28;20032;-87
2022/12/04 01:51:02;;;;;;;74.43;35.70;;;2.50;90.90;;;;;;5092813;28;20040;-87
2022/12/04 01:53:29;;;;;;;71.33;35.20;;;2.50;90.90;;;;;;5101385;28;20020;-88
2022/12/04 01:55:55;;;;;;;77.83;36.37;;;2.50;90.90;;;;;;5083346;28;20036;-87
2022/12/04 01:58:27;;;;;;;80.43;37.80;;;2.50;90.90;;;;;;5096494;28;20025;-87
2022/12/04 02:00:57;;;;;;;75.77;35.53;;;2.50;90.90;;;;;;5094357;28;20020;-88
2022/12/04 02:03:23;;;;;;;81.03;37.20;;;2.50;90.90;;;;;;5094246;28;20024;-88
2022/12/04 02:05:48;;;;;;;73.33;34.00;;;2.50;90.90;;;;;;5077589;28;20506;-88
2022/12/04 02:08:14;;;;;;;73.77;34.63;;;2.50;91.00;;;;;;5095759;28;20024;-87
2022/12/04 02:11:06;;;;;;;78.87;35.20;;;2.50;91.00;;;;;;5096736;28;20572;-89
2022/12/04 02:13:47;;;;;;;71.00;31.10;;;2.50;91.00;;;;;;5095006;28;20020;-87
2022/12/04 02:17:11;;;;;;;75.43;35.37;;;2.50;91.10;;;;;;5094986;28;20065;-87
2022/12/04 02:20:12;;;;;;;74.73;33.00;;;2.40;91.00;;;;;;5016713;28;20071;-88
2022/12/04 02:22:50;;;;;;;75.33;33.40;;;2.40;91.10;;;;;;5057448;28;20476;-88
2022/12/04 02:25:34;;;;;;;74.93;34.17;;;2.50;91.10;;;;;;5094005;28;20480;-86
2022/12/04 02:28:08;;;;;;;73.80;33.25;;;2.50;91.10;;;;;;5093812;28;20070;-88
2022/12/04 02:30:39;;;;;;;74.00;34.83;;;2.50;91.10;;;;;;5091903;28;20386;-77
2022/12/04 02:33:18;;;;;;;80.63;38.00;;;2.50;91.10;;;;;;5093716;28;20026;-77
2022/12/04 02:35:49;;;;;;;95.47;40.33;;;2.50;91.10;;;;;;5092256;28;20024;-78
2022/12/04 02:38:23;;;;;;;75.53;34.77;;;2.50;91.10;;;;;;5093541;28;20120;-77
2022/12/04 02:41:00;;;;;;;81.83;37.00;;;2.50;91.10;;;;;;5092229;28;20024;-77
2022/12/04 02:43:35;;;;;;;74.13;33.43;;;2.50;91.10;;;;;;5092203;28;20072;-76
2022/12/04 02:46:10;;;;;;;74.40;34.80;;;2.40;91.10;;;;;;5093566;28;20027;-77
2022/12/04 02:48:39;;;;;;;73.50;34.93;;;2.40;91.10;;;;;;5092249;28;20035;-77
2022/12/04 02:51:09;;;;;;;76.20;35.10;;;2.50;91.20;;;;;;5093545;28;20028;-77
2022/12/04 02:53:40;;;;;;;74.57;34.43;;;2.50;91.20;;;;;;5092055;28;20012;-77
2022/12/04 02:56:21;;;;;;;79.77;35.03;;;2.50;91.20;;;;;;5091980;28;20111;-77
2022/12/04 02:59:01;;;;;;;79.17;37.20;;;2.50;91.30;;;;;;5092013;28;20024;-77
2022/12/04 03:01:33;;;;;;;79.13;34.83;;;2.50;91.20;;;;;;5091879;28;20021;-78
2022/12/04 03:04:18;;;;;;;75.67;34.80;;;2.50;91.30;;;;;;5091783;28;20384;-77
2022/12/04 03:06:48;;;;;;;71.97;33.87;;;2.60;91.30;;;;;;5092106;28;20020;-79
2022/12/04 03:09:20;;;;;;;74.53;33.40;;;2.50;91.30;;;;;;5091801;28;20491;-77
2022/12/04 03:11:52;;;;;;;79.30;36.57;;;2.50;91.30;;;;;;5093160;28;20548;-77
2022/12/04 03:14:23;;;;;;;76.77;34.80;;;2.50;91.20;;;;;;5093085;28;20024;-77
2022/12/04 03:16:52;;;;;;;78.00;36.20;;;2.50;91.20;;;;;;5091865;28;20016;-77
2022/12/04 03:19:23;;;;;;;76.47;35.93;;;2.50;91.20;;;;;;5093103;28;20062;-77
2022/12/04 03:21:56;;;;;;;80.37;37.77;;;2.50;91.20;;;;;;5093004;28;20103;-77
2022/12/04 03:24:28;;;;;;;60.38;27.38;;;2.50;91.20;;;;;;5093105;28;20098;-78
2022/12/04 03:27:08;;;;;;;80.67;36.87;;;2.50;91.20;;;;;;5092893;28;20491;-78
2022/12/04 03:30:07;;;;;;;75.97;35.57;;;2.50;91.30;;;;;;5091776;28;20124;-78
2022/12/04 03:32:45;;;;;;;77.37;36.30;;;2.50;91.30;;;;;;5086905;28;20032;-78
2022/12/04 03:35:15;;;;;;;80.00;37.10;;;2.60;91.30;;;;;;5091797;28;20080;-78
2022/12/04 03:37:44;;;;;;;68.90;33.60;;;2.50;91.30;;;;;;5091856;28;20024;-77
2022/12/04 03:40:35;;;;;;;77.53;34.17;;;2.60;91.30;;;;;;5092183;28;20140;-78
2022/12/04 03:43:19;;;;;;;72.83;32.77;;;2.60;91.30;;;;;;5096878;28;20024;-78
2022/12/04 03:46:14;;;;;;;54.03;25.65;;;2.60;91.30;;;;;;5095488;28;20055;-78
2022/12/04 03:48:52;;;;;;;75.07;34.90;;;2.50;91.20;;;;;;5091513;28;20373;-77
2022/12/04 03:51:27;;;;;;;73.50;34.80;;;2.50;91.20;;;;;;5095436;28;20024;-77
2022/12/04 03:53:57;;;;;;;74.10;34.47;;;2.50;91.30;;;;;;5096583;28;20035;-78
2022/12/04 03:56:28;;;;;;;68.27;32.33;;;2.40;91.60;;;;;;5095234;28;20024;-78
2022/12/04 03:59:03;;;;;;;63.57;30.10;;;2.50;91.30;;;;;;5095065;28;20016;-78
2022/12/04 04:01:36;;;;;;;71.90;33.93;;;2.50;91.40;;;;;;5095223;28;20027;-78
2022/12/04 04:04:06;;;;;;;76.13;35.13;;;2.50;91.40;;;;;;5095631;28;20445;-78
2022/12/04 04:06:37;;;;;;;75.47;34.10;;;2.50;91.40;;;;;;5095065;28;20062;-78
2022/12/04 04:09:13;;;;;;;71.70;33.20;;;2.60;91.40;;;;;;5096495;28;20024;-78
2022/12/04 04:11:47;;;;;;;74.57;33.27;;;2.60;91.40;;;;;;5095070;28;20024;-78
2022/12/04 04:25:46;;;;;;;72.70;31.90;;;2.50;91.50;;;;;;5096263;28;20047;-78
2022/12/04 04:28:39;;;;;;;67.53;32.20;;;2.50;91.50;;;;;;5061159;28;20032;-78
2022/12/04 04:31:27;;;;;;;68.07;33.57;;;2.60;91.50;;;;;;5077057;28;20028;-77
2022/12/04 04:34:04;;;;;;;67.40;32.20;;;2.50;91.40;;;;;;5110076;28;20028;-78
2022/12/04 04:36:48;;;;;;;69.37;32.00;;;2.50;91.50;;;;;;5093134;28;20426;-78
2022/12/04 04:39:18;;;;;;;52.75;26.38;;;2.50;91.50;;;;;;5092794;28;20488;-78
2022/12/04 04:41:55;;;;;;;73.83;32.50;;;2.60;91.50;;;;;;5094317;28;20012;-78
2022/12/04 04:44:35;;;;;;;72.20;34.00;;;2.60;91.50;;;;;;5094473;28;20081;-77
2022/12/04 04:47:05;;;;;;;67.93;31.80;;;2.50;91.50;;;;;;5094662;28;20160;-78
2022/12/04 04:49:33;;;;;;;67.67;32.47;;;2.60;91.50;;;;;;5094355;28;20028;-77
2022/12/04 04:51:59;;;;;;;73.17;34.33;;;2.60;91.50;;;;;;5093074;28;20020;-78
2022/12/04 04:54:28;;;;;;;77.63;35.30;;;2.60;91.60;;;;;;5077602;28;20067;-78
2022/12/04 04:56:54;;;;;;;78.93;36.73;;;2.60;91.60;;;;;;5094109;28;20484;-78
2022/12/04 04:59:20;;;;;;;69.47;32.87;;;2.50;91.50;;;;;;5094451;28;20031;-78
2022/12/04 05:01:46;;;;;;;73.30;34.20;;;2.60;91.60;;;;;;5094244;28;20472;-78
2022/12/04 05:04:12;;;;;;;71.93;34.67;;;2.50;91.60;;;;;;5095418;28;20097;-78
2022/12/04 05:06:38;;;;;;;77.17;35.93;;;2.60;91.60;;;;;;5094067;28;20028;-78
2022/12/04 05:09:04;;;;;;;75.50;33.73;;;2.60;91.60;;;;;;5093963;28;20100;-78
2022/12/04 05:11:30;;;;;;;75.27;33.60;;;2.60;91.60;;;;;;5084175;28;20021;-78
2022/12/04 05:13:56;;;;;;;65.97;31.40;;;2.60;91.60;;;;;;5093768;28;20085;-76
2022/12/04 05:16:22;;;;;;;71.10;32.17;;;2.60;91.60;;;;;;5076293;28;20036;-77
2022/12/04 05:21:33;;;;;;;69.03;31.65;;;2.60;91.60;;;;;;5090915;28;20055;-77
2022/12/04 05:23:58;;;;;;;71.90;31.90;;;2.60;91.60;;;;;;5093107;28;20042;-77
2022/12/04 05:26:24;;;;;;;65.57;32.00;;;2.60;91.60;;;;;;5092191;28;20107;-77
2022/12/04 05:28:50;;;;;;;71.80;33.10;;;2.60;91.60;;;;;;5093836;28;20372;-77
2022/12/04 05:31:16;;;;;;;72.80;32.70;;;2.60;91.60;;;;;;5093597;28;20407;-77
2022/12/04 05:33:41;;;;;;;67.97;30.57;;;2.60;91.60;;;;;;5093504;28;20035;-77
2022/12/04 05:36:09;;;;;;;77.40;34.47;;;2.60;91.60;;;;;;5093407;28;20032;-77
2022/12/04 05:38:36;;;;;;;70.90;31.90;;;2.60;91.50;;;;;;5093309;28;20086;-77
2022/12/04 05:41:05;;;;;;;67.97;32.77;;;2.60;91.50;;;;;;5073203;28;20082;-77
2022/12/04 05:43:31;;;;;;;70.97;32.33;;;2.60;91.60;;;;;;5056480;28;20051;-78
2022/12/04 05:46:02;;;;;;;68.37;32.70;;;2.60;91.50;;;;;;5073143;28;20035;-77
2022/12/04 05:48:28;;;;;;;70.43;33.00;;;2.60;91.50;;;;;;5072876;28;20043;-77
2022/12/04 05:50:54;;;;;;;72.63;32.87;;;2.60;91.50;;;;;;5072866;28;20468;-77
2022/12/04 05:53:19;;;;;;;73.37;34.07;;;2.60;91.50;;;;;;5089794;28;20016;-77
2022/12/04 05:55:56;;;;;;;69.47;34.10;;;2.60;91.50;;;;;;5056360;28;20473;-77
2022/12/04 05:58:22;;;;;;;72.03;32.77;;;2.60;91.50;;;;;;5074005;28;20020;-77
2022/12/04 06:00:47;;;;;;;63.50;30.80;;;2.70;91.50;;;;;;5072801;28;20137;-77
2022/12/04 06:03:13;;;;;;;69.50;32.80;;;2.60;91.50;;;;;;5072611;28;20162;-77
2022/12/04 06:05:39;;;;;;;68.10;31.03;;;2.60;91.50;;;;;;5072907;28;20025;-76
2022/12/04 06:08:04;;;;;;;63.67;30.27;;;2.50;91.50;;;;;;5072844;28;20036;-77
2022/12/04 06:10:30;;;;;;;67.47;30.70;;;2.60;91.60;;;;;;5056002;28;20032;-77
2022/12/04 06:12:56;;;;;;;69.03;32.37;;;2.60;91.70;;;;;;5073856;28;20028;-78
2022/12/04 06:15:22;;;;;;;67.70;31.23;;;2.60;91.60;;;;;;5072533;28;20028;-76
2022/12/04 06:17:48;;;;;;;65.43;30.63;;;2.50;91.60;;;;;;5073894;28;20078;-77
2022/12/04 06:20:14;;;;;;;63.77;28.47;;;2.60;91.60;;;;;;5089334;28;20460;-76
2022/12/04 06:22:40;;;;;;;64.60;31.03;;;2.60;91.60;;;;;;5072597;28;20059;-76
2022/12/04 06:25:06;;;;;;;64.47;29.13;;;2.50;91.60;;;;;;5072910;28;20064;-77
2022/12/04 06:27:32;;;;;;;64.03;29.93;;;2.50;91.60;;;;;;5072699;28;20081;-77
2022/12/04 06:29:58;;;;;;;65.27;30.50;;;2.60;91.60;;;;;;5072507;28;20449;-77
2022/12/04 06:32:24;;;;;;;64.40;30.50;;;2.50;91.60;;;;;;5073422;28;20016;-77
2022/12/04 06:34:53;;;;;;;66.30;30.87;;;2.50;91.70;;;;;;5073544;28;20029;-77
2022/12/04 06:37:21;;;;;;;69.37;31.07;;;2.60;91.70;;;;;;5072227;28;20439;-77
2022/12/04 06:39:46;;;;;;;66.00;29.13;;;2.60;91.70;;;;;;5081981;28;20040;-76
2022/12/04 06:42:12;;;;;;;66.30;29.90;;;2.60;91.70;;;;;;5092394;28;20027;-77
2022/12/04 06:44:37;;;;;;;69.53;31.53;;;2.60;91.60;;;;;;5075385;28;20020;-77
2022/12/04 06:47:04;;;;;;;60.50;29.97;;;2.60;91.60;;;;;;5075412;28;20105;-77
2022/12/04 06:49:30;;;;;;;63.03;28.87;;;2.60;91.70;;;;;;5109196;28;20024;-77
2022/12/04 06:51:55;;;;;;;63.90;30.27;;;2.60;91.70;;;;;;5109199;28;20480;-77
2022/12/04 06:54:21;;;;;;;68.00;32.30;;;2.60;91.60;;;;;;5092203;28;20028;-77
2022/12/04 06:56:48;;;;;;;65.57;29.83;;;2.60;91.60;;;;;;5093419;28;20380;-77
2022/12/04 06:59:14;;;;;;;64.60;30.30;;;2.60;91.70;;;;;;5091918;28;20031;-78
2022/12/04 07:01:40;;;;;;;62.57;28.80;;;2.60;91.70;;;;;;5075264;28;20020;-77
2022/12/04 07:04:05;;;;;;;66.37;29.67;;;2.60;91.70;;;;;;5092067;28;20110;-77
2022/12/04 07:06:34;;;;;;;60.17;29.50;;;2.60;91.70;;;;;;5092113;28;20024;-77
2022/12/04 07:09:04;;;;;;;65.03;29.47;;;2.60;91.70;;;;;;5092040;28;20426;-77
2022/12/04 07:11:30;;;;;;;64.00;30.03;;;2.60;91.70;;;;;;5091868;28;20024;-77
2022/12/04 07:13:56;;;;;;;62.50;28.90;;;2.60;91.70;;;;;;5091966;28;20020;-77
2022/12/04 07:16:25;;;;;;;68.93;30.77;;;2.60;91.70;;;;;;5094920;28;20039;-77
2022/12/04 07:18:55;;;;;;;60.30;28.70;;;2.70;91.70;;;;;;5096169;28;20020;-76
2022/12/04 07:21:26;;;;;;;60.80;29.27;;;2.70;91.70;;;;;;5079653;28;20024;-77
2022/12/04 07:23:55;;;;;;;71.50;31.40;;;2.70;91.70;;;;;;5095731;28;20016;-77
2022/12/04 07:26:21;;;;;;;65.17;29.87;;;2.70;91.70;;;;;;5095238;28;20032;-77
2022/12/04 07:28:46;;;;;;;63.50;30.23;;;2.70;91.70;;;;;;5112679;28;20027;-77
2022/12/04 07:31:18;;;;;;;57.53;27.73;;;2.70;91.70;;;;;;5094686;28;20020;-77
2022/12/04 07:33:44;;;;;;;59.07;26.87;;;2.70;91.70;;;;;;5096139;28;20027;-77
2022/12/04 07:36:14;;;;;;;60.60;29.37;;;2.70;91.70;;;;;;5094814;28;20020;-76
2022/12/04 07:38:40;;;;;;;60.80;28.13;;;2.80;91.80;;;;;;5095811;28;20020;-78
2022/12/04 07:41:07;;;;;;;59.33;27.93;;;2.70;91.80;;;;;;5095522;28;20063;-77
2022/12/04 07:43:33;;;;;;;60.37;28.33;;;2.70;91.80;;;;;;5095188;28;20031;-77
2022/12/04 07:46:04;;;;;;;57.73;27.43;;;2.70;91.80;;;;;;5096604;28;20016;-77
2022/12/04 07:48:29;;;;;;;65.67;30.70;;;2.70;91.70;;;;;;5095479;28;20024;-77
2022/12/04 07:51:13;;;;;;;63.03;29.27;;;2.70;91.70;;;;;;5078590;28;20035;-77
2022/12/04 07:53:39;;;;;;;58.97;27.55;;;2.70;91.70;;;;;;5095307;28;20134;-78
2022/12/04 07:56:05;;;;;;;60.30;28.47;;;2.70;91.70;;;;;;5094892;28;20059;-78
2022/12/04 07:58:32;;;;;;;61.20;27.43;;;2.70;91.70;;;;;;5094502;28;20024;-78
2022/12/04 08:01:12;;;;;;;63.40;30.00;;;2.70;91.80;;;;;;5077706;28;20016;-78
2022/12/04 08:03:39;;;;;;;60.13;29.10;;;2.70;91.80;;;;;;5096695;28;20456;-78
2022/12/04 08:06:05;;;;;;;59.67;27.33;;;2.70;91.80;;;;;;5096452;28;20085;-77
2022/12/04 08:08:32;;;;;;;58.57;28.07;;;2.80;91.80;;;;;;5095271;28;20035;-78
2022/12/04 08:10:58;;;;;;;59.03;28.67;;;2.80;91.90;;;;;;5078377;28;20097;-78
2022/12/04 08:13:24;;;;;;;61.10;27.10;;;2.80;91.90;;;;;;5095113;28;20497;-78
2022/12/04 08:15:50;;;;;;;60.30;27.80;;;2.80;91.80;;;;;;5095109;28;20036;-78
2022/12/04 08:18:16;;;;;;;65.83;29.73;;;2.70;91.80;;;;;;5095133;28;20484;-78
2022/12/04 08:20:42;;;;;;;55.67;26.20;;;2.80;91.90;;;;;;5094802;28;20028;-78
2022/12/04 08:23:08;;;;;;;58.30;24.83;;;2.80;91.90;;;;;;5077756;28;20047;-78
2022/12/04 08:25:33;;;;;;;56.60;25.00;;;2.80;91.90;;;;;;5094882;28;20024;-78
2022/12/04 08:27:59;;;;;;;63.20;27.50;;;2.80;91.90;;;;;;5094914;28;20032;-77
2022/12/04 08:30:24;;;;;;;58.50;25.93;;;2.80;91.90;;;;;;5094942;28;20036;-78
2022/12/04 08:32:50;;;;;;;60.53;27.80;;;2.80;91.90;;;;;;5077652;28;20039;-77
2022/12/04 08:35:16;;;;;;;57.53;26.93;;;2.80;91.90;;;;;;5077588;28;20039;-77
2022/12/04 08:37:41;;;;;;;56.67;26.23;;;2.80;91.90;;;;;;5094739;28;20109;-77
2022/12/04 08:40:07;;;;;;;59.93;26.20;;;2.80;92.00;;;;;;5094470;28;20045;-77
2022/12/04 08:42:33;;;;;;;53.73;27.17;;;2.80;91.90;;;;;;5077940;28;20028;-78
2022/12/04 08:45:02;;;;;;;55.77;26.10;;;2.80;91.90;;;;;;5093981;28;20097;-78
2022/12/04 08:47:28;;;;;;;56.23;24.67;;;2.80;92.00;;;;;;5077748;28;20032;-78
2022/12/04 08:49:53;;;;;;;60.87;28.13;;;2.90;92.00;;;;;;5077565;28;20030;-77
2022/12/04 08:52:19;;;;;;;61.47;28.80;;;2.90;92.00;;;;;;5094620;28;20476;-78
2022/12/04 08:54:44;;;;;;;54.73;25.10;;;2.90;92.00;;;;;;5077438;28;20028;-79
2022/12/04 08:57:10;;;;;;;55.43;25.27;;;2.90;92.00;;;;;;5077325;28;20439;-77
2022/12/04 08:59:36;;;;;;;53.87;26.30;;;2.90;92.00;;;;;;5094290;28;20028;-77
2022/12/04 09:02:01;;;;;;;58.20;26.73;;;2.90;92.00;;;;;;5094335;28;20476;-77
2022/12/04 09:04:27;;;;;;;53.13;25.47;;;3.00;92.10;;;;;;5094104;28;20016;-78
2022/12/04 09:06:53;;;;;;;59.33;28.10;;;2.90;92.00;;;;;;5095437;28;20032;-78
2022/12/04 09:09:18;;;;;;;57.17;26.37;;;2.90;92.10;;;;;;5077111;28;20035;-77
2022/12/04 09:11:45;;;;;;;59.43;26.33;;;2.90;92.00;;;;;;5077060;28;20123;-78
2022/12/04 09:14:10;;;;;;;60.57;25.33;;;2.90;92.00;;;;;;5073521;28;20073;-78
2022/12/04 09:16:36;;;;;;;57.90;26.23;;;2.90;92.00;;;;;;5073691;28;20107;-78
2022/12/04 09:19:03;;;;;;;49.23;23.53;;;3.00;92.00;;;;;;5074855;28;20027;-78
2022/12/04 09:21:29;;;;;;;51.57;24.07;;;2.90;92.00;;;;;;5073921;28;20021;-76
2022/12/04 09:23:55;;;;;;;53.70;23.30;;;3.00;92.00;;;;;;5074892;28;20021;-79
2022/12/04 09:26:22;;;;;;;50.73;24.07;;;3.00;92.00;;;;;;5056869;28;20111;-79
2022/12/04 09:28:51;;;;;;;53.33;25.00;;;3.00;92.00;;;;;;5074814;28;20025;-78
2022/12/04 09:31:18;;;;;;;50.43;25.03;;;3.00;91.90;;;;;;5074687;28;20024;-77
2022/12/04 09:33:44;;;;;;;52.50;23.83;;;3.10;92.00;;;;;;5073262;28;20472;-78
2022/12/04 09:36:19;;;;;;;48.90;22.70;;;3.10;92.00;;;;;;5074616;28;20017;-79
2022/12/04 09:38:49;;;;;;;43.50;20.37;;;3.00;91.90;;;;;;5072595;28;20027;-78
2022/12/04 09:41:52;;;;;;;48.57;23.53;;;3.20;92.00;;;;;;5086998;28;20135;-78
2022/12/04 09:44:28;;;;;;;47.50;22.73;;;3.00;91.90;;;;;;5095014;28;20026;-79
2022/12/04 09:47:02;;;;;;;45.77;22.10;;;3.00;91.80;;;;;;5093331;28;20141;-79
2022/12/04 09:49:47;;;;;;;48.43;23.23;;;3.00;91.80;;;;;;5094550;28;20016;-80
2022/12/04 09:52:51;;;;;;;48.63;22.90;;;3.00;91.80;;;;;;5093291;28;20080;-79
2022/12/04 09:55:34;;;;;;;46.13;23.20;;;3.00;91.80;;;;;;5094442;28;20376;-79
2022/12/04 09:58:03;;;;;;;44.90;21.42;;;3.10;91.70;;;;;;5095935;28;20095;-86
2022/12/04 10:00:32;;;;;;;44.87;19.97;;;3.00;91.60;;;;;;5099603;28;20020;-87
2022/12/04 10:03:02;;;;;;;40.37;20.13;;;3.10;91.60;;;;;;5082313;28;20043;-86
2022/12/04 10:05:33;;;;;;;39.57;19.13;;;3.00;91.60;;;;;;5099144;28;20027;-86
2022/12/04 10:08:15;;;;;;;40.13;17.40;;;3.10;91.60;;;;;;5100175;28;20055;-86
2022/12/04 10:10:45;;;;;;;31.83;15.97;;;3.10;91.70;;;;;;5102402;28;20028;-85
2022/12/04 10:13:40;;;;;;;39.97;18.30;;;3.10;91.90;;;;;;5103996;28;20483;-85
2022/12/04 10:16:20;;;;;;;34.33;16.93;;;3.10;91.80;;;;;;5101706;28;20036;-85
2022/12/04 10:19:03;;;;;;;32.33;14.80;;;3.10;91.50;;;;;;5103811;28;20035;-85
2022/12/04 10:22:07;;;;;;;30.97;14.90;;;3.20;91.50;;;;;;5099779;28;20169;-86
2022/12/04 10:24:46;;;;;;;33.00;16.33;;;3.10;91.50;;;;;;5099528;28;20019;-86
2022/12/04 10:27:36;;;;;;;29.77;15.17;;;3.20;91.40;;;;;;5096759;28;20024;-86
2022/12/04 10:30:17;;;;;;;29.30;13.80;;;3.20;91.40;;;;;;5095617;28;20028;-85
2022/12/04 10:32:45;;;;;;;27.93;14.50;;;3.20;91.40;;;;;;5095112;28;20032;-86
2022/12/04 10:35:23;;;;;;;28.30;14.50;;;3.20;91.40;;;;;;5098210;28;20028;-85
2022/12/04 10:37:56;;;;;;;31.33;15.50;;;3.20;91.40;;;;;;5097232;28;20027;-86
2022/12/04 10:40:29;;;;;;;22.42;10.80;;;3.30;91.40;;;;;;5096925;28;20084;-85
2022/12/04 10:43:10;;;;;;;29.03;13.70;;;3.30;91.40;;;;;;5095094;28;20034;-85
2022/12/04 10:45:36;;;;;;;29.17;15.00;;;3.30;91.40;;;;;;5095785;28;20079;-85
2022/12/04 10:48:02;;;;;;;29.37;14.07;;;3.30;91.30;;;;;;5075076;28;20032;-85
2022/12/04 10:50:27;;;;;;;28.33;14.73;;;3.30;91.30;;;;;;5090896;28;20555;-85
2022/12/04 10:52:53;;;;;;;27.27;14.13;;;3.30;91.30;;;;;;5092837;28;20032;-85
2022/12/04 10:55:33;;;;;;;27.67;13.80;;;3.30;91.30;;;;;;5093623;28;20153;-85
2022/12/04 10:58:01;;;;;;;26.10;13.03;;;3.30;91.30;;;;;;5092543;28;20193;-85
2022/12/04 11:00:33;;;;;;;27.93;14.40;;;3.40;91.30;;;;;;5075302;28;20027;-85
2022/12/04 11:03:08;;;;;;;30.63;14.40;;;3.40;91.30;;;;;;5092658;28;20021;-84
2022/12/04 11:05:51;;;;;;;24.17;13.07;;;3.40;91.30;;;;;;5093574;28;20103;-85
2022/12/04 11:08:37;;;;;;;28.20;14.52;;;3.40;91.30;;;;;;5093477;28;20379;-85
2022/12/04 11:11:10;;;;;;;26.20;13.20;;;3.40;91.20;;;;;;5093548;28;20030;-85
2022/12/04 11:13:36;;;;;;;25.53;13.50;;;3.40;91.20;;;;;;5092379;28;20028;-84
2022/12/04 11:16:03;;;;;;;26.27;13.37;;;3.40;91.20;;;;;;5092164;28;20387;-85
2022/12/04 11:18:44;;;;;;;32.23;15.93;;;3.50;91.20;;;;;;5093196;28;20021;-85
2022/12/04 11:21:16;;;;;;;28.40;14.70;;;3.40;91.10;;;;;;5091794;28;20062;-85
2022/12/04 11:23:47;;;;;;;26.63;14.47;;;3.30;91.10;;;;;;5091145;28;20022;-84
2022/12/04 11:26:14;;;;;;;27.77;14.23;;;3.40;91.10;;;;;;5091834;28;20032;-86
2022/12/04 11:28:47;;;;;;;26.80;12.80;;;3.50;91.10;;;;;;5093462;28;20028;-85
2022/12/04 11:31:18;;;;;;;26.50;13.17;;;3.50;91.20;;;;;;5093582;28;20478;-85
2022/12/04 11:33:47;;;;;;;26.73;14.70;;;3.50;91.10;;;;;;5092263;28;20477;-85
2022/12/04 11:36:23;;;;;;;28.03;14.37;;;3.40;91.10;;;;;;5093547;28;20028;-85
2022/12/04 11:38:51;;;;;;;26.20;14.13;;;3.50;91.10;;;;;;5092092;28;20115;-85
2022/12/04 11:41:29;;;;;;;26.33;13.10;;;3.50;91.00;;;;;;5092130;28;20048;-85
2022/12/04 11:43:56;;;;;;;27.53;14.70;;;3.50;91.30;;;;;;5092434;28;20027;-85
2022/12/04 11:46:24;;;;;;;26.30;14.23;;;3.50;91.00;;;;;;5092252;28;20032;-85
2022/12/04 11:48:51;;;;;;;25.97;13.07;;;3.60;91.00;;;;;;5091862;28;20020;-82
2022/12/04 11:51:22;;;;;;;24.87;13.73;;;3.60;91.00;;;;;;5091693;28;20450;-82
2022/12/04 11:54:07;;;;;;;24.43;13.67;;;3.60;91.00;;;;;;5091564;28;20479;-80
2022/12/04 11:56:41;;;;;;;;;;;3.70;91.00;;;;;;5091914;28;20114;-81
2022/12/04 11:59:28;;;;;;;22.38;10.65;;;3.60;91.00;;;;;;5091631;28;20340;-80
2022/12/04 12:02:21;;;;;;;25.90;13.53;;;3.60;90.80;;;;;;5093956;28;20066;-82
2022/12/04 12:05:33;;;;;;;31.87;14.23;;;3.60;90.90;;;;;;5093714;28;20424;-80
2022/12/04 12:08:23;;;;;;;28.07;13.50;;;3.60;90.90;;;;;;5044477;28;20041;-81
2022/12/04 12:11:14;;;;;;;24.30;12.63;;;3.60;90.90;;;;;;5074771;28;20083;-81
2022/12/04 12:13:52;;;;;;;24.07;13.23;;;3.60;90.90;;;;;;5074875;28;20028;-80
2022/12/04 12:16:42;;;;;;;27.43;14.30;;;3.70;90.90;;;;;;5075973;28;20028;-81
2022/12/04 12:19:44;;;;;;;27.33;13.70;;;3.70;91.20;;;;;;5080546;28;20062;-80
2022/12/04 12:22:29;;;;;;;25.20;13.67;;;3.70;90.90;;;;;;5095089;28;20124;-80
2022/12/04 12:25:03;;;;;;;;;;;3.70;90.90;;;;;;5095405;28;20465;-80
2022/12/04 12:27:44;;;;;;;25.58;13.30;;;3.70;90.90;;;;;;5111814;28;19926;-81
2022/12/04 12:30:21;;;;;;;27.00;14.67;;;3.70;90.80;;;;;;5095051;28;20123;-80
2022/12/04 12:33:03;;;;;;;25.17;13.43;;;3.60;90.80;;;;;;5093225;28;20433;-81
2022/12/04 12:35:43;;;;;;;23.73;13.17;;;3.60;90.90;;;;;;5107814;28;20028;-79
2022/12/04 12:38:24;;;;;;;27.13;13.23;;;3.70;90.90;;;;;;5073890;28;20468;-81
2022/12/04 12:41:03;;;;;;;23.87;12.23;;;3.70;90.90;;;;;;5072252;28;20037;-80
2022/12/04 12:43:35;;;;;;;24.17;13.60;;;3.70;91.00;;;;;;5074576;28;20487;-81
2022/12/04 12:46:29;;;;;;;25.73;13.90;;;3.70;91.00;;;;;;5074721;28;20465;-82
2022/12/04 12:48:57;;;;;;;25.00;13.53;;;3.70;91.00;;;;;;5075207;28;20020;-81
2022/12/04 12:51:37;;;;;;;23.73;12.97;;;3.80;90.90;;;;;;5075620;28;20047;-82
2022/12/04 12:54:27;;;;;;;26.60;13.50;;;3.80;90.90;;;;;;5074476;28;20383;-81
2022/12/04 12:56:58;;;;;;;24.40;13.23;;;3.80;90.90;;;;;;5092962;28;20032;-81
2022/12/04 12:59:26;;;;;;;25.27;13.30;;;3.80;90.90;;;;;;5095808;28;20027;-81
2022/12/04 13:02:12;;;;;;;26.33;13.17;;;3.90;90.90;;;;;;5096030;28;20032;-81
2022/12/04 13:04:42;;;;;;;25.17;14.13;;;3.80;90.80;;;;;;5094988;28;20438;-81
2022/12/04 13:07:17;;;;;;;26.60;14.47;;;3.80;90.80;;;;;;5095717;28;20020;-80
2022/12/04 13:10:02;;;;;;;23.40;13.27;;;3.70;90.90;;;;;;5096425;28;20103;-80
2022/12/04 13:12:30;;;;;;;24.23;13.00;;;3.80;90.90;;;;;;5093121;28;20476;-80
2022/12/04 13:14:56;;;;;;;27.17;13.27;;;3.70;90.80;;;;;;5093808;28;20032;-80